Time;durP1;ratioP1;P1;durP2;ratioP2;P2;SDS_P1;SDS_P2;PMS_P1;PMS_P2;Temp;Humidity;BMP_temperature;BMP_pressure;BME280_temperature;BME280_humidity;BME280_pressure;Samples;Min_cycle;Max_cycle;Signal;HPM_P1;HPM_P2
2023/05/14 00:01:12;;;;;;;;;;;;;;;14.55;61.19;101631.31;4074533;29;20025;-66
2023/05/14 00:03:17;;;;;;;;;;;;;;;14.50;60.96;101630.16;4073846;29;20022;-66
2023/05/14 00:05:20;;;;;;;;;;;;;;;14.46;61.70;101626.97;4073816;29;20014;-66
2023/05/14 00:07:29;;;;;;;;;;;;;;;14.41;61.59;101630.22;4075133;29;20022;-66
2023/05/14 00:09:31;;;;;;;;;;;;;;;14.37;61.99;101622.59;4075222;29;20038;-66
2023/05/14 00:11:33;;;;;;;;;;;;;;;14.33;62.04;101618.59;4077307;29;20029;-66
2023/05/14 00:13:35;;;;;;;;;;;;;;;14.31;62.36;101620.59;4076667;29;20433;-68
2023/05/14 00:15:38;;;;;;;;;;;;;;;14.29;62.28;101623.50;4075675;29;20418;-67
2023/05/14 00:17:41;;;;;;;;;;;;;;;14.27;62.49;101620.13;4077134;29;20372;-68
2023/05/14 00:19:43;;;;;;;;;;;;;;;14.24;62.30;101623.22;4077014;29;20376;-68
2023/05/14 00:21:45;;;;;;;;;;;;;;;14.24;62.85;101613.19;4077064;29;20025;-68
2023/05/14 00:23:48;;;;;;;;;;;;;;;14.26;62.52;101610.28;4076725;29;20038;-68
2023/05/14 00:25:50;;;;;;;;;;;;;;;14.28;62.62;101615.53;4076221;29;20022;-68
2023/05/14 00:27:52;;;;;;;;;;;;;;;14.25;62.19;101611.31;4076235;29;20022;-68
2023/05/14 00:29:54;;;;;;;;;;;;;;;14.25;62.84;101605.91;4076725;29;20029;-68
2023/05/14 00:31:56;;;;;;;;;;;;;;;14.27;62.66;101609.25;4076509;29;20046;-68
2023/05/14 00:33:58;;;;;;;;;;;;;;;14.30;62.86;101602.63;4076134;29;20025;-68
2023/05/14 00:36:00;;;;;;;;;;;;;;;14.30;62.64;101606.19;4076080;29;19931;-68
2023/05/14 00:38:02;;;;;;;;;;;;;;;14.32;62.43;101609.56;4076689;29;20335;-68
2023/05/14 00:40:07;;;;;;;;;;;;;;;14.34;62.08;101607.53;4075478;29;20022;-68
2023/05/14 00:42:09;;;;;;;;;;;;;;;14.35;62.26;101602.94;4076421;29;20378;-68
2023/05/14 00:44:11;;;;;;;;;;;;;;;14.34;61.86;101603.94;4076300;29;20014;-68
2023/05/14 00:46:13;;;;;;;;;;;;;;;14.31;61.73;101604.31;4076267;29;20021;-68
2023/05/14 00:48:15;;;;;;;;;;;;;;;14.30;61.24;101597.19;4074945;29;20067;-68
2023/05/14 00:50:17;;;;;;;;;;;;;;;14.30;61.42;101597.19;4075281;29;20018;-68
2023/05/14 00:52:19;;;;;;;;;;;;;;;14.26;61.40;101599.41;4075442;29;20022;-68
2023/05/14 00:54:21;;;;;;;;;;;;;;;14.24;61.38;101591.44;4075703;29;20029;-67
2023/05/14 00:56:25;;;;;;;;;;;;;;;14.24;61.88;101596.88;4076576;29;19934;-68
2023/05/14 00:58:27;;;;;;;;;;;;;;;14.23;61.90;101599.78;4076747;29;20015;-67
2023/05/14 01:00:29;;;;;;;;;;;;;;;14.24;61.85;101596.03;4074262;29;20024;-67
2023/05/14 01:02:31;;;;;;;;;;;;;;;14.23;62.41;101597.91;4089827;29;20034;-67
2023/05/14 01:04:33;;;;;;;;;;;;;;;14.21;62.45;101590.97;4076327;29;20221;-68
2023/05/14 01:06:36;;;;;;;;;;;;;;;14.21;62.23;101593.69;4075940;29;20482;-67
2023/05/14 01:08:40;;;;;;;;;;;;;;;14.18;62.32;101585.88;4075746;29;20018;-68
2023/05/14 01:10:45;;;;;;;;;;;;;;;14.13;62.34;101591.88;4076162;29;20376;-67
2023/05/14 01:12:51;;;;;;;;;;;;;;;14.08;62.76;101588.84;4075406;29;20018;-68
2023/05/14 01:14:54;;;;;;;;;;;;;;;14.00;63.03;101580.75;4081551;29;20022;-68
2023/05/14 01:16:58;;;;;;;;;;;;;;;13.95;63.28;101585.84;4075582;29;19938;-68
2023/05/14 01:19:00;;;;;;;;;;;;;;;13.90;63.20;101594.53;4075785;29;20384;-68
2023/05/14 01:21:02;;;;;;;;;;;;;;;13.84;63.35;101584.38;4075871;29;20030;-68
2023/05/14 01:23:05;;;;;;;;;;;;;;;13.79;63.71;101597.66;4074959;29;20030;-66
2023/05/14 01:25:08;;;;;;;;;;;;;;;13.75;64.05;101586.31;4076543;29;20359;-67
2023/05/14 01:27:11;;;;;;;;;;;;;;;13.70;63.84;101589.56;4090647;28;20533;-67
2023/05/14 01:29:14;;;;;;;;;;;;;;;13.71;64.00;101584.97;4074901;29;20588;-67
2023/05/14 01:31:16;;;;;;;;;;;;;;;13.76;63.87;101584.44;4075628;29;20025;-67
2023/05/14 01:33:18;;;;;;;;;;;;;;;13.79;63.75;101590.38;4076088;29;20031;-66
2023/05/14 01:35:20;;;;;;;;;;;;;;;13.80;63.67;101581.19;4074182;29;20014;-66
2023/05/14 01:37:22;;;;;;;;;;;;;;;13.76;63.59;101581.72;4073969;29;19937;-66
2023/05/14 01:39:26;;;;;;;;;;;;;;;13.72;63.64;101577.69;4074838;29;20380;-66
2023/05/14 01:41:28;;;;;;;;;;;;;;;13.67;64.01;101583.66;4074004;29;20030;-67
2023/05/14 01:43:30;;;;;;;;;;;;;;;13.65;63.98;101580.25;4075089;29;20022;-66
2023/05/14 01:45:34;;;;;;;;;;;;;;;13.60;64.27;101580.78;4075091;29;20362;-66
2023/05/14 01:47:36;;;;;;;;;;;;;;;13.58;64.29;101579.28;4074130;29;20013;-66
2023/05/14 01:49:38;;;;;;;;;;;;;;;13.55;64.39;101576.91;4074040;29;20477;-67
2023/05/14 01:51:40;;;;;;;;;;;;;;;13.52;64.52;101578.94;4074171;29;20034;-67
2023/05/14 01:53:42;;;;;;;;;;;;;;;13.52;64.46;101572.69;4075056;29;20018;-66
2023/05/14 01:55:46;;;;;;;;;;;;;;;13.54;64.66;101576.03;4074607;29;20026;-67
2023/05/14 01:57:48;;;;;;;;;;;;;;;13.57;64.37;101581.13;4074086;29;19928;-66
2023/05/14 01:59:50;;;;;;;;;;;;;;;13.60;64.69;101575.34;4075314;29;20013;-66
2023/05/14 02:01:52;;;;;;;;;;;;;;;13.58;64.80;101576.56;4074869;29;20025;-66
2023/05/14 02:03:54;;;;;;;;;;;;;;;13.58;64.84;101577.41;4058378;29;20035;-67
2023/05/14 02:05:57;;;;;;;;;;;;;;;13.58;64.72;101577.41;4074054;29;20026;-66
2023/05/14 02:07:59;;;;;;;;;;;;;;;13.61;64.87;101574.34;4075153;29;20014;-66
2023/05/14 02:10:01;;;;;;;;;;;;;;;13.61;64.79;101574.34;4075099;29;20630;-67
2023/05/14 02:12:05;;;;;;;;;;;;;;;13.68;64.73;101577.19;4072980;29;20054;-66
2023/05/14 02:14:07;;;;;;;;;;;;;;;13.68;63.98;101569.91;4075215;29;20029;-67
2023/05/14 02:16:10;;;;;;;;;;;;;;;13.67;64.33;101564.66;4089737;29;20017;-66
2023/05/14 02:18:14;;;;;;;;;;;;;;;13.66;64.29;101566.50;4074462;29;20014;-66
2023/05/14 02:20:16;;;;;;;;;;;;;;;13.65;64.65;101563.97;4075017;29;20062;-67
2023/05/14 02:22:19;;;;;;;;;;;;;;;13.64;64.71;101571.25;4075167;29;20037;-67
2023/05/14 02:24:21;;;;;;;;;;;;;;;13.65;64.05;101567.53;4073940;29;20022;-67
2023/05/14 02:26:23;;;;;;;;;;;;;;;13.67;64.10;101564.66;4075698;29;20026;-67
2023/05/14 02:28:26;;;;;;;;;;;;;;;13.65;64.62;101567.53;4074619;29;19982;-66
2023/05/14 02:30:30;;;;;;;;;;;;;;;13.60;64.81;101563.66;4074385;29;19994;-67
2023/05/14 02:32:32;;;;;;;;;;;;;;;13.63;64.79;101563.31;4073439;29;20021;-66
2023/05/14 02:34:34;;;;;;;;;;;;;;;13.64;64.63;101560.41;4074378;29;20010;-67
2023/05/14 02:36:36;;;;;;;;;;;;;;;13.65;64.37;101559.41;4074497;29;20055;-66
2023/05/14 02:38:38;;;;;;;;;;;;;;;13.68;64.28;101561.75;4074011;29;19931;-67
2023/05/14 02:40:40;;;;;;;;;;;;;;;13.70;64.54;101561.56;4074971;29;20025;-67
2023/05/14 02:42:42;;;;;;;;;;;;;;;13.69;64.66;101559.88;4073307;29;20473;-67
2023/05/14 02:44:46;;;;;;;;;;;;;;;13.66;64.82;101563.78;4075295;29;20514;-67
2023/05/14 02:46:48;;;;;;;;;;;;;;;13.70;64.74;101562.41;4074705;29;20019;-67
2023/05/14 02:48:50;;;;;;;;;;;;;;;13.74;64.41;101556.63;4075038;29;20066;-67
2023/05/14 02:50:52;;;;;;;;;;;;;;;13.76;64.59;101560.88;4073838;29;20018;-67
2023/05/14 02:52:54;;;;;;;;;;;;;;;13.77;64.05;101559.81;4073899;29;20021;-67
2023/05/14 02:54:56;;;;;;;;;;;;;;;13.78;64.08;101557.97;4073441;29;20026;-66
2023/05/14 02:56:58;;;;;;;;;;;;;;;13.74;64.22;101560.19;4073664;29;20026;-66
2023/05/14 02:59:00;;;;;;;;;;;;;;;13.73;64.42;101560.34;4072905;29;19926;-66
2023/05/14 03:01:03;;;;;;;;;;;;;;;13.73;64.23;101569.38;4080427;29;20021;-67
2023/05/14 03:03:05;;;;;;;;;;;;;;;13.74;64.49;101557.47;4073534;29;20026;-67
2023/05/14 03:05:08;;;;;;;;;;;;;;;13.76;64.32;101557.28;4074611;29;20030;-67
2023/05/14 03:07:10;;;;;;;;;;;;;;;13.78;63.79;101558.81;4073787;29;20021;-66
2023/05/14 03:09:12;;;;;;;;;;;;;;;13.80;63.99;101556.75;4072754;29;20034;-67
2023/05/14 03:11:14;;;;;;;;;;;;;;;13.79;64.14;101555.09;4073311;29;20017;-67
2023/05/14 03:13:18;;;;;;;;;;;;;;;13.76;64.00;101555.44;4072223;29;20014;-67
2023/05/14 03:15:20;;;;;;;;;;;;;;;13.71;64.52;101560.53;4074290;29;20022;-67
2023/05/14 03:17:24;;;;;;;;;;;;;;;13.68;64.80;101561.75;4074472;29;20025;-67
2023/05/14 03:19:26;;;;;;;;;;;;;;;13.70;64.49;101565.13;4072517;29;20497;-67
2023/05/14 03:21:28;;;;;;;;;;;;;;;13.72;64.20;101567.66;4072903;29;20524;-67
2023/05/14 03:23:30;;;;;;;;;;;;;;;13.73;64.26;101565.78;4088314;28;20037;-67
2023/05/14 03:25:33;;;;;;;;;;;;;;;13.70;64.59;101561.56;4073696;29;20505;-67
2023/05/14 03:27:35;;;;;;;;;;;;;;;13.70;64.44;101569.72;4074418;29;20026;-66
2023/05/14 03:29:38;;;;;;;;;;;;;;;13.70;64.60;101559.69;4072941;29;20021;-67
2023/05/14 03:31:40;;;;;;;;;;;;;;;13.66;64.61;101566.50;4073941;29;20037;-67
2023/05/14 03:33:44;;;;;;;;;;;;;;;13.62;64.59;101556.16;4071921;29;20039;-67
2023/05/14 03:35:46;;;;;;;;;;;;;;;13.57;64.94;101559.41;4073280;29;20021;-67
2023/05/14 03:37:48;;;;;;;;;;;;;;;13.57;65.27;101564.00;4073064;29;20022;-67
2023/05/14 03:39:50;;;;;;;;;;;;;;;13.61;65.09;101563.47;4074322;29;20470;-66
2023/05/14 03:41:52;;;;;;;;;;;;;;;13.67;64.67;101564.66;4073684;29;20021;-67
2023/05/14 03:43:55;;;;;;;;;;;;;;;13.68;64.69;101564.47;4072962;29;20041;-67
2023/05/14 03:45:57;;;;;;;;;;;;;;;13.67;64.67;101560.06;4073427;29;20018;-67
2023/05/14 03:47:59;;;;;;;;;;;;;;;13.64;64.77;101552.25;4072948;29;20009;-67
2023/05/14 03:50:03;;;;;;;;;;;;;;;13.61;64.48;101552.63;4088200;28;20030;-66
2023/05/14 03:52:05;;;;;;;;;;;;;;;13.60;64.31;101553.63;4087457;29;20542;-66
2023/05/14 03:54:07;;;;;;;;;;;;;;;13.56;64.54;101559.59;4072723;29;20017;-67
2023/05/14 03:56:09;;;;;;;;;;;;;;;13.50;64.89;101561.16;4074247;29;20025;-67
2023/05/14 03:58:12;;;;;;;;;;;;;;;13.45;65.40;101563.56;4074314;29;20021;-67
2023/05/14 04:00:15;;;;;;;;;;;;;;;13.44;65.77;101556.44;4072526;29;20021;-67
2023/05/14 04:02:20;;;;;;;;;;;;;;;13.43;65.39;101557.44;4073157;29;20025;-67
2023/05/14 04:04:22;;;;;;;;;;;;;;;13.38;65.81;101555.25;4073027;29;20477;-67
2023/05/14 04:06:25;;;;;;;;;;;;;;;13.34;65.90;101556.66;4073979;29;20022;-67
2023/05/14 04:08:27;;;;;;;;;;;;;;;13.31;65.96;101555.09;4074869;29;20030;-67
2023/05/14 04:10:31;;;;;;;;;;;;;;;13.27;66.13;101552.91;4072068;29;20444;-66
2023/05/14 04:12:34;;;;;;;;;;;;;;;13.26;66.27;101554.78;4087880;29;20045;-67
2023/05/14 04:14:37;;;;;;;;;;;;;;;13.23;66.26;101555.13;4088167;29;20014;-66
2023/05/14 04:16:38;;;;;;;;;;;;;;;13.21;66.42;101559.84;4073383;29;20018;-67
2023/05/14 04:18:40;;;;;;;;;;;;;;;13.23;66.54;101544.28;4072543;29;20385;-67
2023/05/14 04:20:43;;;;;;;;;;;;;;;13.25;66.65;101554.94;4072566;29;20451;-67
2023/05/14 04:22:47;;;;;;;;;;;;;;;13.29;66.45;101551.72;4074003;29;20022;-67
2023/05/14 04:24:50;;;;;;;;;;;;;;;13.28;66.57;101550.00;4072460;29;20596;-67
2023/05/14 04:26:52;;;;;;;;;;;;;;;13.26;66.64;101552.06;4073460;29;20010;-67
2023/05/14 04:28:54;;;;;;;;;;;;;;;13.25;66.71;101544.94;4074717;29;20026;-67
2023/05/14 04:30:56;;;;;;;;;;;;;;;13.23;66.85;101551.53;4073258;29;20009;-67
2023/05/14 04:32:58;;;;;;;;;;;;;;;13.23;67.27;101548.84;4072880;29;20014;-67
2023/05/14 04:35:00;;;;;;;;;;;;;;;13.25;66.92;101544.94;4073723;29;20017;-67
2023/05/14 04:37:04;;;;;;;;;;;;;;;13.28;66.81;101539.16;4073781;29;20014;-67
2023/05/14 04:39:08;;;;;;;;;;;;;;;13.31;67.00;101544.25;4073829;29;20025;-67
2023/05/14 04:41:10;;;;;;;;;;;;;;;13.33;66.66;101536.78;4073053;29;19938;-67
2023/05/14 04:43:12;;;;;;;;;;;;;;;13.37;66.38;101534.59;4073538;29;20466;-67
2023/05/14 04:45:14;;;;;;;;;;;;;;;13.42;65.37;101532.19;4073277;29;20015;-66
2023/05/14 04:47:16;;;;;;;;;;;;;;;13.47;65.06;101529.78;4074266;29;20022;-67
2023/05/14 04:49:19;;;;;;;;;;;;;;;13.58;64.22;101538.56;4072682;29;20444;-67
2023/05/14 04:51:21;;;;;;;;;;;;;;;13.63;63.67;101531.56;4073640;29;20846;-67
2023/05/14 04:53:23;;;;;;;;;;;;;;;13.69;63.41;101536.28;4074646;29;20022;-67
2023/05/14 04:55:27;;;;;;;;;;;;;;;13.77;62.15;101527.25;4077549;29;20022;-67
2023/05/14 04:57:29;;;;;;;;;;;;;;;13.88;61.28;101532.25;4077014;29;20383;-66
2023/05/14 04:59:31;;;;;;;;;;;;;;;13.97;60.81;101527.63;4077077;29;20034;-66
2023/05/14 05:01:33;;;;;;;;;;;;;;;14.09;60.03;101532.63;4076234;29;20457;-67
2023/05/14 05:03:35;;;;;;;;;;;;;;;14.17;59.13;101530.72;4076294;29;20025;-66
2023/05/14 05:05:37;;;;;;;;;;;;;;;14.28;58.66;101534.03;4075820;29;20042;-67
2023/05/14 05:07:39;;;;;;;;;;;;;;;14.37;58.48;101530.22;4076698;29;20133;-67
2023/05/14 05:09:41;;;;;;;;;;;;;;;14.45;57.54;101526.59;4076399;29;20025;-67
2023/05/14 05:11:44;;;;;;;;;;;;;;;14.51;57.34;101534.00;4076041;29;20014;-67
2023/05/14 05:13:46;;;;;;;;;;;;;;;14.57;57.43;101530.56;4075991;29;20029;-67
2023/05/14 05:15:48;;;;;;;;;;;;;;;14.61;56.90;101529.19;4075705;29;20017;-67
2023/05/14 05:17:50;;;;;;;;;;;;;;;14.59;57.49;101537.50;4075239;29;20022;-66
2023/05/14 05:19:52;;;;;;;;;;;;;;;14.62;57.39;101530.88;4076053;29;20446;-67
2023/05/14 05:21:54;;;;;;;;;;;;;;;14.68;57.76;101523.84;4076035;29;20390;-67
2023/05/14 05:23:56;;;;;;;;;;;;;;;14.66;57.03;101525.94;4076430;29;20030;-67
2023/05/14 05:25:58;;;;;;;;;;;;;;;14.68;56.83;101530.13;4075455;29;20026;-66
2023/05/14 05:28:01;;;;;;;;;;;;;;;14.70;57.36;101524.50;4075538;29;20022;-67
2023/05/14 05:30:04;;;;;;;;;;;;;;;14.73;56.72;101522.28;4074692;29;20363;-67
2023/05/14 05:32:06;;;;;;;;;;;;;;;14.80;56.58;101522.38;4074136;29;20018;-66
2023/05/14 05:34:08;;;;;;;;;;;;;;;14.87;56.12;101527.91;4075284;29;20038;-66
2023/05/14 05:36:10;;;;;;;;;;;;;;;14.92;55.83;101523.59;4075552;29;20038;-66
2023/05/14 05:38:14;;;;;;;;;;;;;;;14.97;55.71;101520.34;4074243;29;20029;-67
2023/05/14 05:40:16;;;;;;;;;;;;;;;15.03;55.29;101522.31;4073694;29;20037;-67
2023/05/14 05:42:18;;;;;;;;;;;;;;;15.04;55.06;101514.97;4075388;29;20469;-66
2023/05/14 05:44:21;;;;;;;;;;;;;;;15.06;55.09;101519.22;4074068;29;20021;-68
2023/05/14 05:46:23;;;;;;;;;;;;;;;15.11;55.26;101522.19;4073599;29;20746;-67
2023/05/14 05:48:25;;;;;;;;;;;;;;;15.13;55.12;101513.84;4075369;29;20026;-67
2023/05/14 05:50:27;;;;;;;;;;;;;;;15.19;54.84;101502.22;4075665;29;20025;-66
2023/05/14 05:52:29;;;;;;;;;;;;;;;15.24;53.93;101513.38;4074552;29;20357;-66
2023/05/14 05:54:32;;;;;;;;;;;;;;;15.27;53.68;101510.28;4089242;29;20388;-66
2023/05/14 05:56:34;;;;;;;;;;;;;;;15.32;53.87;101515.97;4074197;29;20049;-66
2023/05/14 05:58:36;;;;;;;;;;;;;;;15.38;53.07;101513.56;4075084;29;20424;-67
2023/05/14 06:00:40;;;;;;;;;;;;;;;15.41;52.96;101515.91;4074171;29;20771;-65
2023/05/14 06:02:43;;;;;;;;;;;;;;;15.47;52.73;101509.69;4073455;29;19933;-66
2023/05/14 06:04:45;;;;;;;;;;;;;;;15.52;51.80;101512.69;4073355;29;20039;-66
2023/05/14 06:06:48;;;;;;;;;;;;;;;15.55;51.87;101514.16;4072996;29;20022;-66
2023/05/14 06:08:50;;;;;;;;;;;;;;;15.56;51.87;101518.56;4071402;29;20013;-66
2023/05/14 06:10:52;;;;;;;;;;;;;;;15.57;52.04;101510.22;4074160;29;20378;-67
2023/05/14 06:12:54;;;;;;;;;;;;;;;15.62;51.89;101512.38;4074187;29;20703;-67
2023/05/14 06:14:57;;;;;;;;;;;;;;;15.66;51.03;101513.69;4071732;29;19928;-68
2023/05/14 06:17:00;;;;;;;;;;;;;;;15.69;50.96;101505.13;4073397;29;20042;-67
2023/05/14 06:19:02;;;;;;;;;;;;;;;15.71;50.86;101505.78;4070074;29;20033;-66
2023/05/14 06:21:04;;;;;;;;;;;;;;;15.73;50.76;101511.03;4066843;29;20018;-66
2023/05/14 06:23:06;;;;;;;;;;;;;;;15.73;50.94;101503.69;4072656;29;19927;-67
2023/05/14 06:25:09;;;;;;;;;;;;;;;15.75;51.11;101509.81;4074494;29;20025;-67
2023/05/14 06:27:11;;;;;;;;;;;;;;;15.80;51.05;101515.53;4072514;29;20038;-67
2023/05/14 06:29:13;;;;;;;;;;;;;;;15.83;50.76;101514.28;4070770;29;20021;-67
2023/05/14 06:31:15;;;;;;;;;;;;;;;15.89;50.65;101507.25;4070800;29;20045;-67
2023/05/14 06:33:19;;;;;;;;;;;;;;;15.92;50.23;101512.31;4069484;29;20034;-67
2023/05/14 06:35:22;;;;;;;;;;;;;;;15.92;50.53;101513.13;4072225;29;20025;-67
2023/05/14 06:37:24;;;;;;;;;;;;;;;15.98;50.51;101503.34;4068856;29;20002;-66
2023/05/14 06:39:26;;;;;;;;;;;;;;;16.01;50.28;101508.44;4069839;29;20025;-66
2023/05/14 06:41:29;;;;;;;;;;;;;;;16.00;50.28;101509.44;4074405;29;20375;-67
2023/05/14 06:43:31;;;;;;;;;;;;;;;16.01;50.39;101509.25;4071627;29;19931;-67
2023/05/14 06:45:33;;;;;;;;;;;;;;;16.02;50.58;101507.41;4072441;29;20021;-66
2023/05/14 06:47:35;;;;;;;;;;;;;;;16.06;50.27;101507.84;4070166;29;20818;-65
2023/05/14 06:49:38;;;;;;;;;;;;;;;16.09;50.00;101500.09;4071325;29;20445;-65
2023/05/14 06:51:40;;;;;;;;;;;;;;;16.14;50.26;101499.53;4073384;29;20059;-66
2023/05/14 06:53:43;;;;;;;;;;;;;;;16.15;50.03;101502.06;4073316;29;20013;-67
2023/05/14 06:55:47;;;;;;;;;;;;;;;16.16;50.30;101502.88;4086940;29;19957;-67
2023/05/14 06:57:50;;;;;;;;;;;;;;;16.17;50.55;101499.13;4074130;29;19942;-68
2023/05/14 06:59:53;;;;;;;;;;;;;;;16.25;50.07;101507.16;4073726;29;20406;-67
2023/05/14 07:01:56;;;;;;;;;;;;;;;16.29;49.53;101508.47;4073225;29;19931;-67
2023/05/14 07:03:58;;;;;;;;;;;;;;;16.31;49.61;101503.66;4072798;29;20014;-68
2023/05/14 07:06:03;;;;;;;;;;;;;;;16.32;49.60;101502.63;4072306;29;20026;-68
2023/05/14 07:08:06;;;;;;;;;;;;;;;16.35;49.74;101494.06;4073273;29;19931;-67
2023/05/14 07:10:10;;;;;;;;;;;;;;;16.38;49.48;101492.84;4072166;29;19991;-67
2023/05/14 07:12:12;;;;;;;;;;;;;;;16.41;49.31;101500.63;4070261;29;19927;-66
2023/05/14 07:14:14;;;;;;;;;;;;;;;16.44;49.05;101502.09;4073542;29;20022;-66
2023/05/14 07:16:16;;;;;;;;;;;;;;;16.44;49.06;101494.78;4072187;29;20026;-68
2023/05/14 07:18:18;;;;;;;;;;;;;;;16.46;49.11;101489.97;4072864;29;20030;-64
2023/05/14 07:20:22;;;;;;;;;;;;;;;16.51;49.21;101490.19;4072352;29;20022;-67
2023/05/14 07:22:26;;;;;;;;;;;;;;;16.60;48.95;101484.59;4071273;29;20017;-67
2023/05/14 07:24:28;;;;;;;;;;;;;;;16.60;48.68;101492.78;4071862;29;19931;-68
2023/05/14 07:26:30;;;;;;;;;;;;;;;16.65;48.93;101493.88;4071933;29;19931;-67
2023/05/14 07:28:32;;;;;;;;;;;;;;;16.69;48.41;101497.03;4073653;29;20030;-67
2023/05/14 07:30:34;;;;;;;;;;;;;;;16.71;48.54;101489.50;4072511;29;20462;-67
2023/05/14 07:32:36;;;;;;;;;;;;;;;16.74;48.13;101489.94;4071705;29;20027;-66
2023/05/14 07:34:38;;;;;;;;;;;;;;;16.80;48.26;101488.28;4071928;29;20017;-66
2023/05/14 07:36:41;;;;;;;;;;;;;;;16.83;48.07;101470.69;4073499;29;20449;-67
2023/05/14 07:38:45;;;;;;;;;;;;;;;16.84;47.99;101481.41;4074730;29;20018;-67
2023/05/14 07:40:47;;;;;;;;;;;;;;;16.86;48.03;101476.59;4071738;29;20035;-66
2023/05/14 07:42:49;;;;;;;;;;;;;;;16.90;48.33;101474.34;4070268;29;20033;-66
2023/05/14 07:44:51;;;;;;;;;;;;;;;16.94;48.24;101478.34;4072219;29;19958;-67
2023/05/14 07:46:53;;;;;;;;;;;;;;;16.97;48.50;101466.19;4071481;29;20022;-67
2023/05/14 07:48:55;;;;;;;;;;;;;;;17.01;48.46;101465.59;4074084;29;19991;-66
2023/05/14 07:50:57;;;;;;;;;;;;;;;17.06;47.78;101465.81;4074205;29;20449;-66
2023/05/14 07:52:59;;;;;;;;;;;;;;;17.09;47.72;101468.13;4074442;29;20038;-66
2023/05/14 07:55:04;;;;;;;;;;;;;;;17.15;47.69;101458.31;4073773;29;20564;-66
2023/05/14 07:57:07;;;;;;;;;;;;;;;17.22;47.23;101467.34;4074571;29;20034;-66
2023/05/14 07:59:10;;;;;;;;;;;;;;;17.24;47.19;101450.75;4073683;29;20017;-66
2023/05/14 08:01:12;;;;;;;;;;;;;;;17.26;47.16;101454.97;4073620;29;20010;-66
2023/05/14 08:03:14;;;;;;;;;;;;;;;17.28;46.73;101461.06;4073867;29;20031;-67
2023/05/14 08:05:16;;;;;;;;;;;;;;;17.36;46.82;101454.59;4073526;29;20425;-67
2023/05/14 08:07:18;;;;;;;;;;;;;;;17.40;46.35;101446.84;4073862;29;20027;-67
2023/05/14 08:09:20;;;;;;;;;;;;;;;17.40;46.37;101446.84;4074269;29;20042;-67
2023/05/14 08:11:24;;;;;;;;;;;;;;;17.42;46.57;101450.22;4074184;29;20378;-66
2023/05/14 08:13:26;;;;;;;;;;;;;;;17.49;46.09;101448.31;4073303;29;20017;-67
2023/05/14 08:15:28;;;;;;;;;;;;;;;17.53;45.93;101446.88;4073582;29;20018;-66
2023/05/14 08:17:30;;;;;;;;;;;;;;;17.56;46.11;101448.38;4073854;29;20025;-67
2023/05/14 08:19:32;;;;;;;;;;;;;;;17.57;45.58;101442.69;4073347;29;20010;-66
2023/05/14 08:21:34;;;;;;;;;;;;;;;17.59;45.84;101445.22;4072748;29;20025;-66
2023/05/14 08:23:36;;;;;;;;;;;;;;;17.62;45.71;101442.09;4073876;29;20013;-66
2023/05/14 08:25:38;;;;;;;;;;;;;;;17.67;45.51;101439.56;4073647;29;20446;-66
2023/05/14 08:27:41;;;;;;;;;;;;;;;17.70;45.73;101438.31;4073066;29;20358;-67
2023/05/14 08:29:43;;;;;;;;;;;;;;;17.70;45.56;101435.59;4076061;29;20367;-66
2023/05/14 08:31:45;;;;;;;;;;;;;;;17.72;45.54;101434.31;4075455;29;20042;-66
2023/05/14 08:33:47;;;;;;;;;;;;;;;17.74;45.50;101423.16;4076499;29;20017;-67
2023/05/14 08:35:50;;;;;;;;;;;;;;;17.80;45.54;101430.53;4076705;29;20033;-67
2023/05/14 08:37:52;;;;;;;;;;;;;;;17.84;44.89;101431.81;4076374;29;20038;-67
2023/05/14 08:39:55;;;;;;;;;;;;;;;17.85;45.16;101428.00;4075121;29;20058;-66
2023/05/14 08:41:57;;;;;;;;;;;;;;;17.87;45.34;101425.94;4076356;29;20021;-67
2023/05/14 08:44:03;;;;;;;;;;;;;;;17.88;45.18;101426.75;4076584;29;20022;-67
2023/05/14 08:46:05;;;;;;;;;;;;;;;17.90;45.16;101421.97;4076201;29;20375;-67
2023/05/14 08:48:08;;;;;;;;;;;;;;;17.93;45.20;101421.53;4076914;29;20018;-67
2023/05/14 08:50:10;;;;;;;;;;;;;;;18.00;45.19;101422.41;4076349;29;20029;-66
2023/05/14 08:52:12;;;;;;;;;;;;;;;18.02;45.19;101420.28;4076479;29;20017;-67
2023/05/14 08:54:15;;;;;;;;;;;;;;;18.05;44.99;101414.41;4076330;29;20353;-66
2023/05/14 08:56:18;;;;;;;;;;;;;;;18.08;44.60;101413.97;4076550;29;20025;-67
2023/05/14 08:58:20;;;;;;;;;;;;;;;18.09;44.17;101409.38;4076903;29;20021;-67
2023/05/14 09:00:23;;;;;;;;;;;;;;;18.09;44.67;101414.84;4076523;29;20476;-67
2023/05/14 09:02:27;;;;;;;;;;;;;;;18.09;44.79;101404.75;4076611;29;20034;-67
2023/05/14 09:04:29;;;;;;;;;;;;;;;18.12;44.82;101406.19;4076924;29;20014;-66
2023/05/14 09:06:32;;;;;;;;;;;;;;;18.15;44.92;101397.56;4075956;29;20594;-66
2023/05/14 09:08:35;;;;;;;;;;;;;;;18.22;44.66;101392.94;4075881;29;20034;-67
2023/05/14 09:10:39;;;;;;;;;;;;;;;18.23;43.45;101393.78;4076326;29;20025;-66
2023/05/14 09:12:41;;;;;;;;;;;;;;;18.25;44.31;101386.22;4076091;29;20021;-67
2023/05/14 09:14:43;;;;;;;;;;;;;;;18.27;44.42;101382.19;4074574;29;20496;-67
2023/05/14 09:16:47;;;;;;;;;;;;;;;18.30;44.48;101384.50;4075928;29;20350;-67
2023/05/14 09:18:49;;;;;;;;;;;;;;;18.31;44.53;101382.63;4076566;29;20017;-66
2023/05/14 09:20:51;;;;;;;;;;;;;;;18.30;44.43;101383.69;4076082;29;20457;-66
2023/05/14 09:22:54;;;;;;;;;;;;;;;18.33;44.43;101384.09;4076346;29;20026;-66
2023/05/14 09:25:01;;;;;;;;;;;;;;;18.35;43.97;101368.31;4075817;29;20029;-66
2023/05/14 09:27:03;;;;;;;;;;;;;;;18.43;43.41;101374.59;4073893;29;19931;-67
2023/05/14 09:29:05;;;;;;;;;;;;;;;18.46;43.79;101366.81;4076074;29;20010;-66
2023/05/14 09:31:08;;;;;;;;;;;;;;;18.45;43.62;101367.03;4075192;29;20034;-67
2023/05/14 09:33:15;;;;;;;;;;;;;;;18.49;43.65;101365.53;4076074;29;20488;-67
2023/05/14 09:35:18;;;;;;;;;;;;;;;18.53;42.91;101366.81;4075225;29;20034;-68
2023/05/14 09:37:20;;;;;;;;;;;;;;;18.47;43.51;101363.03;4075868;29;20057;-67
2023/05/14 09:39:22;;;;;;;;;;;;;;;18.49;43.55;101352.69;4076293;29;20034;-68
2023/05/14 09:41:24;;;;;;;;;;;;;;;18.52;43.39;101352.28;4075563;29;20014;-67
2023/05/14 09:43:26;;;;;;;;;;;;;;;18.55;43.71;101340.91;4075282;29;20029;-67
2023/05/14 09:45:29;;;;;;;;;;;;;;;18.58;43.44;101345.13;4074510;29;20021;-68
2023/05/14 09:47:31;;;;;;;;;;;;;;;18.59;43.04;101337.72;4076268;29;19935;-68
2023/05/14 09:49:35;;;;;;;;;;;;;;;18.64;43.28;101335.22;4075591;29;20013;-67
2023/05/14 09:51:37;;;;;;;;;;;;;;;18.66;42.63;101333.94;4076290;29;20049;-67
2023/05/14 09:53:40;;;;;;;;;;;;;;;18.64;43.24;101333.31;4075765;29;20022;-67
2023/05/14 09:55:42;;;;;;;;;;;;;;;18.65;43.38;101331.41;4075469;29;20054;-68
2023/05/14 09:57:44;;;;;;;;;;;;;;;18.63;43.07;101333.53;4075938;29;20458;-67
2023/05/14 09:59:46;;;;;;;;;;;;;;;18.68;42.83;101329.09;4076224;29;20030;-67
2023/05/14 10:01:48;;;;;;;;;;;;;;;18.69;42.47;101322.53;4075577;29;20058;-67
2023/05/14 10:03:50;;;;;;;;;;;;;;;18.69;42.26;101321.72;4074840;29;20021;-67
2023/05/14 10:05:53;;;;;;;;;;;;;;;18.75;41.76;101317.28;4075952;29;20392;-67
2023/05/14 10:07:56;;;;;;;;;;;;;;;18.77;41.11;101304.22;4076182;29;19931;-68
2023/05/14 10:09:59;;;;;;;;;;;;;;;18.82;41.19;101305.22;4076297;29;20017;-68
2023/05/14 10:12:01;;;;;;;;;;;;;;;18.82;40.51;101307.13;4075816;29;19994;-68
2023/05/14 10:14:05;;;;;;;;;;;;;;;18.81;40.98;101310.91;4075673;29;20489;-68
2023/05/14 10:16:08;;;;;;;;;;;;;;;18.76;40.80;101310.72;4076177;29;20030;-67
2023/05/14 10:18:11;;;;;;;;;;;;;;;18.73;41.40;101309.28;4076233;29;20022;-68
2023/05/14 10:20:13;;;;;;;;;;;;;;;18.73;40.88;101303.81;4076530;29;20408;-67
2023/05/14 10:22:16;;;;;;;;;;;;;;;18.71;41.12;101304.03;4075343;29;20021;-67
2023/05/14 10:24:18;;;;;;;;;;;;;;;18.70;41.05;101296.88;4076265;29;20034;-68
2023/05/14 10:26:20;;;;;;;;;;;;;;;18.70;40.54;101305.09;4076069;29;20374;-68
2023/05/14 10:28:22;;;;;;;;;;;;;;;18.72;41.50;101299.41;4074697;29;20017;-68